Time;durP1;ratioP1;P1;durP2;ratioP2;P2;SDS_P1;SDS_P2;PMS_P1;PMS_P2;Temp;Humidity;BMP_temperature;BMP_pressure;BME280_temperature;BME280_humidity;BME280_pressure;Samples;Min_cycle;Max_cycle;Signal;HPM_P1;HPM_P2
2022/11/04 00:01:12;;;;;;;7.47;5.55;;;;;;;9.07;100.00;99996.47;5228506;28;20388;-63
2022/11/04 00:03:44;;;;;;;8.55;6.30;;;;;;;9.09;100.00;100002.50;5231572;28;20407;-70
2022/11/04 00:06:15;;;;;;;11.43;8.20;;;;;;;9.10;100.00;99988.22;5237615;28;20577;-71
2022/11/04 00:08:51;;;;;;;16.40;10.93;;;;;;;9.16;100.00;99999.19;5246785;28;20041;-71
2022/11/04 00:14:13;;;;;;;25.90;17.63;;;;;;;9.25;100.00;99997.56;5246020;28;20508;-71
2022/11/04 00:33:24;;;;;;;;;;;;;;;9.22;100.00;100021.78;5247091;28;20041;-71
2022/11/04 00:33:53;;;;;;;19.45;14.18;;;;;;;9.15;100.00;100024.13;5244473;28;20289;-71
2022/11/04 00:36:25;;;;;;;20.25;14.35;;;;;;;9.13;100.00;100023.41;5244123;28;20086;-70
2022/11/04 00:38:57;;;;;;;20.10;14.45;;;;;;;9.06;100.00;100024.06;5244071;28;20037;-71
2022/11/04 00:41:29;;;;;;;22.00;15.38;;;;;;;9.03;100.00;100020.69;5243779;28;20043;-70
2022/11/04 00:44:02;;;;;;;24.23;15.98;;;;;;;9.03;100.00;100028.66;5248055;28;20768;-71
2022/11/04 00:46:34;;;;;;;22.30;15.07;;;;;;;9.01;100.00;100037.72;5248328;28;20166;-71
2022/11/04 00:49:05;;;;;;;21.35;14.85;;;;;;;8.97;100.00;100037.13;5251011;28;20036;-71
2022/11/04 00:51:36;;;;;;;20.15;14.77;;;;;;;9.04;100.00;100040.13;5243592;28;20044;-71
2022/11/04 00:54:08;;;;;;;19.88;15.05;;;;;;;8.97;100.00;100045.09;5257309;28;20036;-71
2022/11/04 00:56:39;;;;;;;23.85;15.73;;;;;;;8.92;100.00;100041.16;5252148;28;20315;-71
2022/11/04 00:59:10;;;;;;;19.20;14.35;;;;;;;8.87;100.00;100049.50;5253260;28;20043;-71
2022/11/04 01:01:42;;;;;;;21.40;14.38;;;;;;;8.94;100.00;100052.53;5243849;28;20029;-71
2022/11/04 01:04:13;;;;;;;20.75;14.82;;;;;;;8.79;100.00;100051.97;5246971;28;20028;-71
2022/11/04 01:06:44;;;;;;;20.10;15.18;;;;;;;8.78;100.00;100060.91;5245274;28;20076;-71
2022/11/04 01:09:16;;;;;;;23.00;15.90;;;;;;;8.73;100.00;100052.47;5251100;28;20041;-71
2022/11/04 01:11:47;;;;;;;23.85;15.35;;;;;;;8.66;100.00;100046.78;5246938;28;20056;-71
2022/11/04 01:14:19;;;;;;;22.98;16.30;;;;;;;8.62;100.00;100062.16;5252553;28;20430;-71
2022/11/04 01:16:50;;;;;;;26.83;16.33;;;;;;;8.64;100.00;100062.88;5252833;28;20395;-71
2022/11/04 01:19:22;;;;;;;27.30;16.83;;;;;;;8.63;100.00;100063.00;5248214;28;20056;-71
2022/11/04 01:21:53;;;;;;;26.55;16.85;;;;;;;8.64;100.00;100067.34;5248411;28;20035;-71
2022/11/04 01:24:24;;;;;;;25.05;16.25;;;;;;;8.64;100.00;100073.50;5253272;28;20029;-71
2022/11/04 01:26:56;;;;;;;32.60;17.80;;;;;;;8.67;100.00;100076.88;5246154;28;21333;-67
2022/11/04 01:29:27;;;;;;;29.75;17.58;;;;;;;8.62;100.00;100077.25;5253177;28;20490;-66
2022/11/04 01:31:58;;;;;;;30.40;17.10;;;;;;;8.64;100.00;100068.19;5247356;28;20024;-67
2022/11/04 01:34:30;;;;;;;30.83;17.20;;;;;;;8.64;100.00;100068.19;5247190;28;20107;-67
2022/11/04 01:37:01;;;;;;;28.77;16.27;;;;;;;8.65;100.00;100055.75;5244605;28;21488;-67
2022/11/04 01:39:32;;;;;;;28.30;15.70;;;;;;;8.60;100.00;100061.44;5247981;28;20034;-67
2022/11/04 01:42:03;;;;;;;25.67;15.05;;;;;;;8.60;100.00;100063.25;5247839;28;20032;-67
2022/11/04 01:44:40;;;;;;;24.08;14.27;;;;;;;8.57;100.00;100071.47;5247332;28;20033;-67
2022/11/04 01:47:24;;;;;;;26.95;15.02;;;;;;;8.49;100.00;100064.09;5246048;28;20033;-67
2022/11/04 01:50:01;;;;;;;26.00;15.07;;;;;;;8.55;100.00;100062.75;5245936;28;20548;-67
2022/11/04 01:52:45;;;;;;;23.38;13.15;;;;;;;8.44;100.00;100063.66;5241510;28;20037;-67
2022/11/04 01:55:22;;;;;;;24.45;13.80;;;;;;;8.48;100.00;100074.88;5243739;28;20490;-67
2022/11/04 01:57:57;;;;;;;21.73;12.10;;;;;;;8.39;100.00;100069.28;5252989;28;20167;-67
2022/11/04 02:00:29;;;;;;;25.13;12.23;;;;;;;8.35;100.00;100070.50;5244301;28;20029;-67
2022/11/04 02:03:09;;;;;;;22.48;11.82;;;;;;;8.37;100.00;100071.22;5249601;28;20079;-66
2022/11/04 02:05:42;;;;;;;19.10;10.52;;;;;;;8.33;100.00;100075.09;5251942;28;20057;-67
2022/11/04 02:08:16;;;;;;;20.17;10.95;;;;;;;8.22;100.00;100064.47;5250484;28;20025;-67
2022/11/04 02:10:53;;;;;;;21.95;10.50;;;;;;;8.23;100.00;100067.00;5246725;28;20033;-68
2022/11/04 02:13:27;;;;;;;20.35;10.48;;;;;;;8.17;100.00;100072.81;5245329;28;20021;-66
2022/11/04 02:16:29;;;;;;;19.03;9.60;;;;;;;8.20;100.00;100074.38;5250512;28;20112;-67
2022/11/04 02:19:22;;;;;;;18.15;9.65;;;;;;;8.15;100.00;100073.88;5247184;28;20482;-67
2022/11/04 02:22:09;;;;;;;16.80;9.43;;;;;;;8.07;100.00;100071.00;5254113;28;20029;-67
2022/11/04 02:24:55;;;;;;;22.85;9.23;;;;;;;8.09;100.00;100074.38;5252850;28;20083;-67
2022/11/04 02:27:35;;;;;;;19.88;9.73;;;;;;;8.01;100.00;100081.13;5254751;28;20028;-67
2022/11/04 02:30:14;;;;;;;19.55;9.00;;;;;;;8.01;100.00;100080.28;5245867;28;21624;-67
2022/11/04 02:32:58;;;;;;;19.40;8.82;;;;;;;7.90;100.00;100086.44;5253254;28;20549;-67
2022/11/04 02:35:31;;;;;;;13.25;7.82;;;;;;;7.90;100.00;100088.25;5248031;28;20025;-67
2022/11/04 02:38:13;;;;;;;15.10;7.10;;;;;;;7.91;100.00;100093.44;5247425;28;20139;-67
2022/11/04 02:41:05;;;;;;;19.35;7.60;;;;;;;7.90;100.00;100091.75;5254792;28;20029;-67
2022/11/04 02:43:36;;;;;;;17.73;7.40;;;;;;;7.85;100.00;100093.91;5251621;28;20040;-67
2022/11/04 02:46:35;;;;;;;13.13;6.72;;;;;;;7.83;100.00;100093.19;5246805;28;20041;-67
2022/11/04 02:49:41;;;;;;;15.93;7.57;;;;;;;7.78;100.00;100092.69;5250927;28;20462;-67
2022/11/04 02:52:21;;;;;;;17.23;7.20;;;;;;;7.79;100.00;100100.56;5169719;28;20058;-67
2022/11/04 02:55:03;;;;;;;14.93;6.57;;;;;;;7.78;100.00;100098.84;5236496;28;20037;-67
2022/11/04 02:57:38;;;;;;;12.02;6.28;;;;;;;7.84;100.00;100098.41;5242855;28;20403;-67
2022/11/04 03:00:14;;;;;;;12.65;5.88;;;;;;;7.78;100.00;100100.66;5242304;28;20025;-67
2022/11/04 03:03:00;;;;;;;11.13;5.78;;;;;;;7.72;100.00;100095.81;5241818;28;20470;-67
2022/11/04 03:05:38;;;;;;;13.05;6.25;;;;;;;7.70;100.00;100087.13;5241982;28;20037;-67
2022/11/04 03:08:18;;;;;;;10.02;5.47;;;;;;;7.66;100.00;100092.66;5248994;28;20426;-67
2022/11/04 03:10:53;;;;;;;13.82;6.25;;;;;;;7.63;100.00;100098.22;5248645;28;20033;-67
2022/11/04 03:13:35;;;;;;;12.73;6.10;;;;;;;7.61;100.00;100097.50;5248647;28;20028;-67
2022/11/04 03:16:11;;;;;;;9.70;5.50;;;;;;;7.57;100.00;100098.66;5242002;28;20182;-67
2022/11/04 03:19:05;;;;;;;13.70;5.95;;;;;;;7.58;100.00;100105.69;5249407;28;20047;-67
2022/11/04 03:21:44;;;;;;;12.38;5.35;;;;;;;7.55;100.00;100103.25;5240668;28;20057;-67
2022/11/04 03:24:16;;;;;;;10.93;5.55;;;;;;;7.54;100.00;100095.44;5250505;28;20028;-67
2022/11/04 03:27:20;;;;;;;14.30;6.10;;;;;;;7.46;100.00;100104.81;5250751;28;20055;-67
2022/11/04 03:30:03;;;;;;;11.57;5.20;;;;;;;7.51;100.00;100104.44;5220997;28;20056;-67
2022/11/04 03:32:41;;;;;;;12.07;5.10;;;;;;;7.50;100.00;100105.44;5244378;28;20025;-67
2022/11/04 03:35:15;;;;;;;10.93;5.07;;;;;;;7.44;100.00;100105.88;5241047;28;20039;-67
2022/11/04 03:37:48;;;;;;;11.82;4.22;;;;;;;7.48;100.00;100110.00;5248953;28;20060;-67
2022/11/04 03:40:20;;;;;;;12.50;5.22;;;;;;;7.41;100.00;100109.63;5244200;28;20031;-67
2022/11/04 03:42:59;;;;;;;11.55;4.97;;;;;;;7.40;100.00;100105.28;5245268;28;20047;-66
2022/11/04 03:45:30;;;;;;;13.48;5.38;;;;;;;7.39;100.00;100111.53;5247594;28;20033;-66
2022/11/04 03:48:02;;;;;;;10.73;5.05;;;;;;;7.29;100.00;100110.53;5244076;28;20486;-66
2022/11/04 03:50:46;;;;;;;11.70;4.93;;;;;;;7.33;100.00;100113.81;5245096;28;20602;-66
2022/11/04 03:53:23;;;;;;;11.40;4.43;;;;;;;7.30;100.00;100106.06;5249028;28;20166;-66
2022/11/04 03:56:32;;;;;;;14.50;4.63;;;;;;;7.35;100.00;100112.72;5243736;28;20502;-66
2022/11/04 03:59:23;;;;;;;12.75;4.60;;;;;;;7.30;100.00;100104.25;5218519;28;20480;-66
2022/11/04 04:02:02;;;;;;;11.50;4.55;;;;;;;7.20;100.00;100106.75;5241372;28;20952;-66
2022/11/04 04:04:40;;;;;;;12.18;4.32;;;;;;;7.18;100.00;100111.34;5245747;28;20052;-66
2022/11/04 04:07:17;;;;;;;12.10;4.05;;;;;;;7.15;100.00;100110.72;5241188;28;20043;-66
2022/11/04 04:09:56;;;;;;;15.00;4.13;;;;;;;7.20;100.00;100104.09;5248103;28;20126;-66
2022/11/04 04:12:40;;;;;;;7.65;3.75;;;;;;;7.19;100.00;100105.06;5243508;28;20031;-66
2022/11/04 04:15:21;;;;;;;10.90;4.30;;;;;;;7.14;100.00;100111.69;5241811;28;20607;-66
2022/11/04 04:18:01;;;;;;;12.43;4.97;;;;;;;7.16;100.00;100112.41;5245761;28;20032;-67
2022/11/04 04:20:37;;;;;;;11.50;3.92;;;;;;;7.05;100.00;100126.47;5246827;28;20044;-66
2022/11/04 04:29:05;;;;;;;11.77;4.65;;;;;;;6.99;100.00;100134.88;5243362;28;20041;-66
2022/11/04 04:31:48;;;;;;;9.07;3.92;;;;;;;7.01;100.00;100128.47;5241088;28;20118;-66
2022/11/04 04:34:26;;;;;;;10.85;4.90;;;;;;;6.91;100.00;100126.63;5239736;28;20033;-66
2022/11/04 04:37:06;;;;;;;11.65;4.45;;;;;;;6.93;100.00;100141.47;5252718;28;20037;-66
2022/11/04 04:45:54;;;;;;;16.17;5.30;;;;;;;6.73;100.00;100148.22;5247500;28;20029;-66
2022/11/04 04:48:25;;;;;;;15.38;5.32;;;;;;;6.72;100.00;100146.50;5245344;28;20032;-66
2022/11/04 04:51:00;;;;;;;16.30;5.45;;;;;;;6.60;100.00;100150.88;5246514;28;20091;-67
2022/11/04 04:53:32;;;;;;;15.48;5.70;;;;;;;6.54;100.00;100146.03;5242682;28;20044;-66
2022/11/04 04:56:03;;;;;;;12.52;5.38;;;;;;;6.56;100.00;100152.06;5246689;28;20024;-66
2022/11/04 04:58:34;;;;;;;11.85;6.00;;;;;;;6.55;100.00;100145.06;5244959;28;20046;-67
2022/11/04 05:01:07;;;;;;;14.77;5.90;;;;;;;6.61;100.00;100149.06;5243477;28;20029;-66
2022/11/04 05:03:39;;;;;;;14.30;6.13;;;;;;;6.57;100.00;100151.09;5242194;28;20141;-67
2022/11/04 05:06:10;;;;;;;15.30;6.65;;;;;;;6.65;100.00;100159.38;5251946;28;20021;-66
2022/11/04 05:08:41;;;;;;;16.85;7.43;;;;;;;6.63;100.00;100150.66;5248327;28;20025;-66
2022/11/04 05:11:12;;;;;;;24.65;7.80;;;;;;;6.60;100.00;100160.66;5242037;28;20346;-67
2022/11/04 05:13:44;;;;;;;19.67;8.75;;;;;;;6.61;100.00;100163.16;5248756;28;20033;-67
2022/11/04 05:16:15;;;;;;;24.20;9.63;;;;;;;6.59;100.00;100161.59;5255151;28;20055;-67
2022/11/04 05:18:46;;;;;;;21.42;9.23;;;;;;;6.59;100.00;100169.53;5251531;28;20113;-66
2022/11/04 05:21:18;;;;;;;23.42;9.73;;;;;;;6.69;100.00;100167.94;5247318;28;20063;-66
2022/11/04 05:23:49;;;;;;;20.65;9.82;;;;;;;6.68;100.00;100175.03;5245634;28;20033;-67
2022/11/04 05:26:20;;;;;;;20.45;9.32;;;;;;;6.62;100.00;100180.78;5245580;28;20033;-66
2022/11/04 05:28:51;;;;;;;22.38;10.93;;;;;;;6.73;100.00;100181.81;5250735;28;20035;-66
2022/11/04 05:31:23;;;;;;;26.70;11.15;;;;;;;6.64;100.00;100189.47;5249665;28;20068;-67
2022/11/04 05:33:55;;;;;;;24.02;11.32;;;;;;;6.61;100.00;100186.19;5255070;28;20041;-66
2022/11/04 05:36:26;;;;;;;28.92;11.50;;;;;;;6.61;100.00;100189.69;5249359;28;20088;-66
2022/11/04 05:38:58;;;;;;;28.88;12.05;;;;;;;6.59;100.00;100188.09;5247298;28;20043;-67
2022/11/04 05:41:29;;;;;;;25.55;10.80;;;;;;;6.59;100.00;100188.09;5248312;28;20032;-66
2022/11/04 05:44:02;;;;;;;21.70;10.70;;;;;;;6.58;100.00;100194.38;5246821;28;21751;-67
2022/11/04 05:46:33;;;;;;;24.00;12.15;;;;;;;6.62;100.00;100193.19;5247503;28;20057;-66
2022/11/04 05:49:05;;;;;;;20.17;9.95;;;;;;;6.75;100.00;100199.31;5251696;28;20439;-67
2022/11/04 05:51:36;;;;;;;26.73;11.30;;;;;;;6.68;100.00;100198.06;5248795;28;20021;-66
2022/11/04 05:54:08;;;;;;;25.15;11.45;;;;;;;6.64;100.00;100199.22;5248467;28;20118;-66
2022/11/04 05:56:39;;;;;;;27.55;10.65;;;;;;;6.65;100.00;100199.13;5248681;28;20479;-66
2022/11/04 05:59:10;;;;;;;23.63;10.15;;;;;;;6.63;100.00;100205.47;5254042;28;20114;-67
2022/11/04 06:01:42;;;;;;;25.92;10.63;;;;;;;6.61;100.00;100216.19;5243460;28;20329;-66
2022/11/04 06:04:16;;;;;;;23.58;10.00;;;;;;;6.58;100.00;100212.94;5241284;28;20119;-66
2022/11/04 06:06:47;;;;;;;29.17;10.45;;;;;;;6.55;100.00;100211.31;5245823;28;20032;-67
2022/11/04 06:09:18;;;;;;;22.30;9.55;;;;;;;6.56;100.00;100212.16;5247649;28;20076;-66
2022/11/04 06:11:49;;;;;;;24.48;10.27;;;;;;;6.54;100.00;100222.03;5247842;28;21102;-66
2022/11/04 06:14:23;;;;;;;22.73;9.82;;;;;;;6.58;100.00;100215.56;5242619;28;20033;-67
2022/11/04 06:16:54;;;;;;;20.63;9.80;;;;;;;6.51;100.00;100223.09;5248630;28;20143;-67
2022/11/04 06:19:26;;;;;;;20.63;9.45;;;;;;;6.54;100.00;100222.88;5238971;28;20108;-67
2022/11/04 06:21:57;;;;;;;25.00;10.57;;;;;;;6.53;100.00;100233.59;5239728;28;21374;-67
2022/11/04 06:24:28;;;;;;;22.70;9.82;;;;;;;6.51;100.00;100219.59;5240414;28;20086;-66
2022/11/04 06:26:59;;;;;;;24.55;9.77;;;;;;;6.46;100.00;100234.03;5238812;28;20295;-67
2022/11/04 06:29:31;;;;;;;19.80;9.85;;;;;;;6.45;100.00;100229.66;5242674;28;20029;-66
2022/11/04 06:32:02;;;;;;;23.17;9.63;;;;;;;6.43;100.00;100234.22;5243432;28;20021;-66
2022/11/04 06:34:34;;;;;;;20.95;9.25;;;;;;;6.46;100.00;100231.38;5245419;28;20371;-67
2022/11/04 06:37:06;;;;;;;36.40;10.88;;;;;;;6.47;100.00;100243.66;5242936;28;20470;-67
2022/11/04 06:39:37;;;;;;;27.23;10.57;;;;;;;6.41;100.00;100243.25;5249899;28;20724;-66
2022/11/04 06:42:09;;;;;;;23.15;10.32;;;;;;;6.37;100.00;100244.41;5241922;28;20074;-66
2022/11/04 06:44:40;;;;;;;21.42;9.60;;;;;;;6.40;100.00;100249.47;5243670;28;20339;-67
2022/11/04 06:47:11;;;;;;;20.85;9.43;;;;;;;6.35;100.00;100254.25;5248045;28;20089;-66
2022/11/04 06:49:42;;;;;;;18.05;9.30;;;;;;;6.35;100.00;100243.63;5252878;28;20035;-66
2022/11/04 06:52:14;;;;;;;22.95;9.55;;;;;;;6.33;100.00;100249.06;5246072;28;20557;-67
2022/11/04 06:54:46;;;;;;;22.58;9.40;;;;;;;6.26;100.00;100245.97;5248872;28;20056;-66
2022/11/04 06:57:18;;;;;;;21.50;9.45;;;;;;;6.28;100.00;100261.78;5254581;28;20115;-66
2022/11/04 06:59:49;;;;;;;21.13;9.00;;;;;;;6.32;100.00;100263.25;5247770;28;20041;-66
2022/11/04 07:02:20;;;;;;;19.85;8.80;;;;;;;6.36;100.00;100267.38;5241760;28;20045;-67
2022/11/04 07:04:51;;;;;;;21.95;10.23;;;;;;;6.39;100.00;100275.13;5247978;28;20025;-67
2022/11/04 07:07:23;;;;;;;19.23;8.98;;;;;;;6.54;100.00;100270.59;5243074;28;20116;-66
2022/11/04 07:09:54;;;;;;;20.92;8.63;;;;;;;6.51;100.00;100277.91;5248749;28;20563;-67
2022/11/04 07:12:25;;;;;;;17.75;8.63;;;;;;;6.59;100.00;100279.06;5236056;28;20025;-67
2022/11/04 07:14:56;;;;;;;20.63;9.57;;;;;;;6.64;100.00;100279.59;5237642;28;20041;-66
2022/11/04 07:17:28;;;;;;;23.17;9.63;;;;;;;6.71;100.00;100284.47;5242212;28;20121;-65
2022/11/04 07:19:59;;;;;;;21.77;10.13;;;;;;;6.72;100.00;100291.47;5245369;28;20470;-65
2022/11/04 07:22:30;;;;;;;17.33;9.20;;;;;;;6.78;100.00;100289.25;5247793;28;20057;-67
2022/11/04 07:25:02;;;;;;;21.42;9.65;;;;;;;6.85;100.00;100295.81;5238073;28;20036;-66
2022/11/04 07:27:33;;;;;;;20.40;9.70;;;;;;;6.92;100.00;100282.13;5239188;28;20035;-65
2022/11/04 07:30:05;;;;;;;26.42;10.77;;;;;;;6.90;100.00;100292.00;5257526;28;20543;-65
2022/11/04 07:32:37;;;;;;;17.83;9.50;;;;;;;7.07;100.00;100289.84;5255806;28;20025;-66
2022/11/04 07:35:08;;;;;;;22.58;10.60;;;;;;;7.07;100.00;100292.50;5255257;28;20047;-67
2022/11/04 07:37:39;;;;;;;28.08;11.13;;;;;;;7.09;100.00;100299.50;5255454;28;20086;-67
2022/11/04 07:40:11;;;;;;;22.92;10.45;;;;;;;7.11;100.00;100295.78;5255861;28;20415;-67
2022/11/04 07:42:42;;;;;;;21.08;10.02;;;;;;;7.19;100.00;100301.41;5254780;28;20094;-67
2022/11/04 07:45:13;;;;;;;25.80;11.30;;;;;;;7.20;100.00;100311.03;5255131;28;20043;-67
2022/11/04 07:47:45;;;;;;;22.92;10.10;;;;;;;7.30;100.00;100305.09;5256076;28;20029;-67
2022/11/04 07:50:16;;;;;;;22.60;10.82;;;;;;;7.37;100.00;100315.16;5253697;28;20029;-66
2022/11/04 07:52:49;;;;;;;21.60;10.35;;;;;;;7.51;100.00;100314.16;5252754;28;20048;-66
2022/11/04 07:55:20;;;;;;;21.95;10.05;;;;;;;7.55;100.00;100314.78;5246984;28;20033;-66
2022/11/04 07:57:53;;;;;;;21.45;9.85;;;;;;;7.55;100.00;100315.63;5248832;28;20454;-67
2022/11/04 08:00:24;;;;;;;21.33;10.27;;;;;;;7.66;100.00;100321.00;5248471;28;20063;-67
2022/11/04 08:02:55;;;;;;;24.55;10.75;;;;;;;7.63;100.00;100320.38;5253465;28;20140;-67
2022/11/04 08:05:27;;;;;;;22.58;10.82;;;;;;;7.71;100.00;100318.03;5250471;28;20032;-67
2022/11/04 08:07:59;;;;;;;22.92;11.20;;;;;;;7.73;100.00;100317.91;5251358;28;20036;-67
2022/11/04 08:10:30;;;;;;;27.85;12.10;;;;;;;7.88;100.00;100323.91;5250489;28;20033;-66
2022/11/04 08:13:02;;;;;;;24.02;11.52;;;;;;;7.87;100.00;100322.22;5251016;28;20024;-67
2022/11/04 08:15:35;;;;;;;25.58;12.75;;;;;;;7.92;100.00;100331.56;5253958;28;20033;-66
2022/11/04 08:18:06;;;;;;;26.35;12.85;;;;;;;7.96;100.00;100332.19;5251526;28;20033;-66
2022/11/04 08:20:37;;;;;;;27.65;13.55;;;;;;;7.97;100.00;100336.50;5247515;28;20036;-66
2022/11/04 08:23:10;;;;;;;26.63;13.50;;;;;;;8.03;100.00;100336.91;5252216;28;20116;-67
2022/11/04 08:25:42;;;;;;;24.37;13.43;;;;;;;8.04;100.00;100340.41;5249952;28;20033;-66
2022/11/04 08:28:16;;;;;;;35.17;15.35;;;;;;;8.04;100.00;100343.06;5249985;28;20098;-66
2022/11/04 08:31:00;;;;;;;28.48;14.88;;;;;;;8.09;100.00;100351.53;5253547;28;20086;-67
2022/11/04 08:33:32;;;;;;;;;;;;;;;8.18;100.00;100347.34;5255593;28;20447;-66
2022/11/04 08:36:19;;;;;;;27.60;15.80;;;;;;;8.11;100.00;100359.38;5248658;28;19916;-66
2022/11/04 08:38:51;;;;;;;29.92;15.55;;;;;;;8.14;100.00;100365.34;5248966;28;20035;-66
2022/11/04 08:41:28;;;;;;;30.92;13.80;;;;;;;8.16;100.00;100366.06;5249184;28;20024;-66
2022/11/04 08:43:59;;;;;;;35.22;14.40;;;;;;;8.17;100.00;100366.91;5241299;28;20052;-66
2022/11/04 08:46:35;;;;;;;28.92;14.95;;;;;;;8.19;100.00;100365.84;5251239;28;20112;-66
2022/11/04 08:49:07;;;;;;;29.02;14.95;;;;;;;8.26;100.00;100371.53;5247283;28;20032;-67
2022/11/04 08:51:43;;;;;;;35.13;15.25;;;;;;;8.27;100.00;100364.44;5248243;28;20033;-65
2022/11/04 08:54:14;;;;;;;34.58;15.27;;;;;;;8.33;100.00;100364.81;5250652;28;20348;-67
2022/11/04 08:56:46;;;;;;;28.85;13.70;;;;;;;8.37;100.00;100376.91;5252062;28;20626;-66
2022/11/04 08:59:17;;;;;;;24.50;13.75;;;;;;;8.31;100.00;100372.06;5250869;28;20021;-66
2022/11/04 09:01:48;;;;;;;24.95;13.65;;;;;;;8.39;100.00;100385.63;5248315;28;20040;-67
2022/11/04 09:04:19;;;;;;;24.77;13.05;;;;;;;8.33;100.00;100383.41;5245090;28;20519;-66
2022/11/04 09:06:51;;;;;;;33.55;14.23;;;;;;;8.37;100.00;100384.88;5253652;28;20032;-67
2022/11/04 09:09:23;;;;;;;30.15;13.35;;;;;;;8.37;100.00;100384.88;5249790;28;20021;-67
2022/11/04 09:11:54;;;;;;;28.67;12.82;;;;;;;8.45;100.00;100392.31;5255082;28;20343;-66
2022/11/04 09:14:25;;;;;;;22.45;12.25;;;;;;;8.54;100.00;100398.78;5258017;28;20506;-67
2022/11/04 09:16:57;;;;;;;23.08;12.80;;;;;;;8.47;100.00;100409.00;5254291;28;20559;-67
2022/11/04 09:19:28;;;;;;;26.67;13.60;;;;;;;8.52;100.00;100414.00;5259077;28;20036;-67
2022/11/04 09:21:59;;;;;;;27.65;13.30;;;;;;;8.54;100.00;100420.03;5256641;28;20159;-67
2022/11/04 09:24:30;;;;;;;28.13;13.75;;;;;;;8.53;100.00;100415.66;5246939;28;20021;-66
2022/11/04 09:27:03;;;;;;;32.13;14.40;;;;;;;8.56;100.00;100412.78;5259340;28;20036;-66
2022/11/04 09:29:35;;;;;;;29.45;14.25;;;;;;;8.58;100.00;100414.38;5255825;28;20532;-66
2022/11/04 09:32:07;;;;;;;33.25;14.90;;;;;;;8.64;100.00;100411.22;5256244;28;20103;-66
2022/11/04 09:34:38;;;;;;;27.98;12.85;;;;;;;8.85;100.00;100423.03;5257685;28;20033;-66
2022/11/04 09:37:10;;;;;;;31.25;14.85;;;;;;;8.79;100.00;100435.84;5249192;28;20025;-66
2022/11/04 09:39:41;;;;;;;28.30;14.55;;;;;;;8.90;100.00;100435.03;5256485;28;20079;-67
2022/11/04 09:42:25;;;;;;;26.13;14.55;;;;;;;8.95;100.00;100442.66;5257415;28;20529;-66
2022/11/04 09:45:10;;;;;;;25.30;14.15;;;;;;;9.01;100.00;100448.38;5258362;28;20055;-66
2022/11/04 09:47:44;;;;;;;27.70;15.48;;;;;;;9.02;100.00;100455.38;5257550;28;20032;-66
2022/11/04 09:50:25;;;;;;;30.30;15.00;;;;;;;9.07;100.00;100462.16;5257139;28;20047;-66
2022/11/04 09:53:06;;;;;;;30.73;14.68;;;;;;;9.13;100.00;100459.03;5251871;28;20053;-67
2022/11/04 09:55:45;;;;;;;36.05;14.48;;;;;;;9.07;100.00;100467.47;5255110;28;20025;-66
2022/11/04 09:58:16;;;;;;;27.52;14.55;;;;;;;9.22;100.00;100460.97;5258680;28;20074;-66
2022/11/04 10:01:00;;;;;;;32.22;15.65;;;;;;;9.25;100.00;100459.91;5253169;28;20025;-66
2022/11/04 10:04:13;;;;;;;26.38;14.65;;;;;;;9.38;100.00;100469.47;5254897;28;20470;-67
2022/11/04 10:07:05;;;;;;;30.33;14.85;;;;;;;9.43;100.00;100466.44;5247834;28;20036;-66
2022/11/04 10:10:08;;;;;;;34.58;15.95;;;;;;;9.42;100.00;100465.59;5250685;28;20071;-66
2022/11/04 10:12:45;;;;;;;29.33;14.60;;;;;;;9.44;100.00;100467.31;5242371;28;20469;-66
2022/11/04 10:15:32;;;;;;;31.83;14.88;;;;;;;9.50;100.00;100474.81;5254734;28;20474;-66
2022/11/04 10:18:08;;;;;;;33.55;13.88;;;;;;;9.46;100.00;100484.03;5255782;28;20033;-66
2022/11/04 10:20:55;;;;;;;25.20;14.60;;;;;;;9.50;100.00;100485.47;5255439;28;20059;-66
2022/11/04 10:23:44;;;;;;;27.83;14.60;;;;;;;9.50;100.00;100475.66;5257105;28;20036;-66
2022/11/04 10:26:22;;;;;;;26.45;13.25;;;;;;;9.50;100.00;100475.66;5251635;28;20029;-66
2022/11/04 10:29:01;;;;;;;31.63;14.35;;;;;;;9.56;100.00;100482.31;5257198;28;20063;-66
2022/11/04 10:31:37;;;;;;;28.00;15.30;;;;;;;9.58;100.00;100481.22;5253532;28;20036;-67
2022/11/04 10:34:40;;;;;;;28.90;13.63;;;;;;;9.54;100.00;100484.25;5250399;28;20449;-66
2022/11/04 10:37:12;;;;;;;28.10;13.93;;;;;;;9.48;100.00;100492.75;5252634;28;20044;-66
2022/11/04 10:39:45;;;;;;;25.92;14.35;;;;;;;9.49;100.00;100500.63;5257947;28;20489;-66
2022/11/04 10:42:20;;;;;;;22.25;13.98;;;;;;;9.50;100.00;100504.13;5254394;28;20115;-66
2022/11/04 10:44:52;;;;;;;30.25;16.13;;;;;;;9.54;100.00;100511.75;5254966;28;20028;-66
2022/11/04 10:47:45;;;;;;;27.90;15.82;;;;;;;9.61;100.00;100525.44;5248884;28;20036;-66
2022/11/04 10:50:24;;;;;;;30.63;14.77;;;;;;;9.58;100.00;100520.34;5249907;28;20029;-66
2022/11/04 10:53:35;;;;;;;30.95;17.02;;;;;;;9.75;100.00;100522.53;5248068;28;20131;-66
2022/11/04 10:56:20;;;;;;;34.95;18.77;;;;;;;9.80;100.00;100524.88;5212681;28;20373;-66
2022/11/04 10:58:52;;;;;;;33.78;17.25;;;;;;;9.77;100.00;100517.94;5216500;28;20048;-66
2022/11/04 11:01:32;;;;;;;28.80;15.82;;;;;;;9.82;100.00;100522.91;5244872;28;20037;-66
2022/11/04 11:04:06;;;;;;;34.78;17.08;;;;;;;9.85;100.00;100517.34;5255732;28;20143;-66
2022/11/04 11:06:37;;;;;;;31.13;17.20;;;;;;;9.90;100.00;100520.50;5257493;28;20475;-66
2022/11/04 11:09:18;;;;;;;22.98;15.90;;;;;;;9.86;100.00;100520.88;5255109;28;20033;-66
2022/11/04 11:11:51;;;;;;;29.95;16.92;;;;;;;9.89;100.00;100513.44;5254408;28;20021;-66
2022/11/04 11:14:29;;;;;;;29.87;17.30;;;;;;;9.93;100.00;100512.28;5252537;28;20200;-66
2022/11/04 11:17:32;;;;;;;27.38;16.45;;;;;;;10.00;100.00;100516.13;5256560;28;20094;-66
2022/11/04 11:20:14;;;;;;;28.00;15.25;;;;;;;9.90;100.00;100523.16;5234456;28;20066;-66
2022/11/04 11:22:47;;;;;;;29.77;16.00;;;;;;;9.79;100.00;100526.66;5247021;28;20076;-67
2022/11/04 11:25:22;;;;;;;32.63;16.35;;;;;;;9.86;100.00;100527.03;5253832;28;20025;-66
2022/11/04 11:28:04;;;;;;;;;;;;;;;10.00;100.00;100526.78;5257662;28;20094;-66
2022/11/04 11:30:45;;;;;;;29.05;17.67;;;;;;;9.91;100.00;100527.50;5253650;28;19913;-67
2022/11/04 11:33:39;;;;;;;31.13;18.27;;;;;;;10.00;100.00;100533.94;5254095;28;20453;-66
2022/11/04 11:36:18;;;;;;;26.17;15.88;;;;;;;9.92;100.00;100529.22;5253628;28;20028;-66
2022/11/04 11:38:56;;;;;;;28.30;16.35;;;;;;;9.87;100.00;100526.06;5250189;28;20032;-67
2022/11/04 11:41:32;;;;;;;26.10;13.75;;;;;;;9.84;100.00;100528.09;5255086;28;20017;-67
2022/11/04 11:44:43;;;;;;;22.20;11.95;;;;;;;9.95;100.00;100525.44;5254301;28;20036;-67
2022/11/04 11:47:20;;;;;;;27.17;12.52;;;;;;;9.86;100.00;100524.38;5191757;28;20056;-66
2022/11/04 11:50:14;;;;;;;23.95;12.35;;;;;;;9.92;100.00;100518.56;5251743;28;20033;-67
2022/11/04 11:52:48;;;;;;;23.02;12.43;;;;;;;9.91;100.00;100522.16;5253454;28;20494;-67
2022/11/04 11:55:31;;;;;;;30.55;14.75;;;;;;;9.93;100.00;100514.06;5255242;28;20053;-67
2022/11/04 11:58:18;;;;;;;29.15;14.40;;;;;;;9.94;100.00;100526.44;5244317;28;20063;-67
2022/11/04 12:01:00;;;;;;;26.15;14.07;;;;;;;9.93;100.00;100533.59;5250739;28;20604;-67
2022/11/04 12:03:39;;;;;;;30.63;16.35;;;;;;;9.89;100.00;100536.59;5247398;28;20071;-67
2022/11/04 12:06:31;;;;;;;27.38;14.43;;;;;;;10.00;100.00;100549.94;5246132;28;20035;-67
2022/11/04 12:09:12;;;;;;;23.98;13.40;;;;;;;9.97;100.00;100551.03;5247945;28;21408;-67
2022/11/04 12:12:18;;;;;;;23.88;14.15;;;;;;;10.02;100.00;100554.16;5246654;28;20029;-67
2022/11/04 12:15:18;;;;;;;;;;;;;;;10.12;100.00;100558.75;5247835;28;20111;-67
2022/11/04 12:18:07;;;;;;;27.38;14.90;;;;;;;10.02;100.00;100556.81;5238180;28;20375;-67
2022/11/04 12:21:06;;;;;;;23.52;13.70;;;;;;;10.10;100.00;100560.72;5246864;28;20035;-67
2022/11/04 12:23:49;;;;;;;24.45;14.35;;;;;;;10.06;100.00;100568.09;5247377;28;20071;-67
2022/11/04 12:26:32;;;;;;;24.02;14.05;;;;;;;10.09;100.00;100569.69;5248882;28;20642;-67